Alvaton, Kentucky
Current Conditions -  °F | °C
As of 9:53 AM on Monday 22 Dec 2014 (Local Time) from KBWG Reporting Station
Overcast Overcast  
Wind Chill: 12°   Ceiling: 2500
Heat Index: 12°   Visibility: 10mi
Dew Point:   Wind: 9mph
Humidity: 69%   Direction: 140°SE
Pressure: 29.92"   Gusts: NA
Location:  36.87°N, 86.35°W
Report Text: KBWG 221553Z AUTO 14008KT 10SM OVC025 12/06 A2992 RMK AO2 SLP133 T01170061 $
Loading
Personal Weather Stations






























Interactive Weather Map New forecast layout! Learn more

10-Day Weather Forecast

Advertisements
Track Severe Weather on mobile